createdAt,value
2023-05-08T00:01:37.546Z,26.00
2023-05-08T00:04:04.818Z,27.57
2023-05-08T00:06:31.925Z,27.65
2023-05-08T00:08:59.757Z,26.58
2023-05-08T00:11:26.691Z,27.30
2023-05-08T00:13:53.623Z,26.23
2023-05-08T00:16:21.587Z,28.05
2023-05-08T00:18:48.495Z,30.07
2023-05-08T00:21:15.384Z,29.45
2023-05-08T00:23:42.260Z,31.13
2023-05-08T00:26:09.102Z,33.53
2023-05-08T00:28:37.811Z,32.58
2023-05-08T00:31:04.696Z,34.07
2023-05-08T00:33:31.608Z,34.73
2023-05-08T00:36:02.349Z,34.20
2023-05-08T00:38:33.085Z,33.38
2023-05-08T00:41:00.194Z,32.23
2023-05-08T00:43:28.453Z,29.77
2023-05-08T00:45:56.529Z,24.95
2023-05-08T00:48:24.930Z,25.37
2023-05-08T00:50:53.258Z,23.58
2023-05-08T00:53:20.771Z,22.80
2023-05-08T00:55:47.644Z,21.90
2023-05-08T00:58:14.662Z,21.30
2023-05-08T01:00:42.224Z,21.13
2023-05-08T01:03:09.716Z,18.83
2023-05-08T01:05:36.858Z,20.07
2023-05-08T01:08:04.058Z,20.27
2023-05-08T01:10:42.962Z,20.50
2023-05-08T01:13:14.889Z,20.33
2023-05-08T01:15:51.933Z,19.13
2023-05-08T01:18:27.857Z,21.27
2023-05-08T01:21:15.294Z,19.27
2023-05-08T01:23:56.109Z,21.10
2023-05-08T01:26:37.954Z,19.27
2023-05-08T01:29:28.380Z,18.50
2023-05-08T01:32:26.468Z,18.27
2023-05-08T01:35:17.840Z,18.93
2023-05-08T01:38:00.973Z,19.20
2023-05-08T01:40:42.734Z,20.23
2023-05-08T01:43:39.611Z,20.70
2023-05-08T01:46:10.158Z,20.87
2023-05-08T01:48:41.501Z,23.13
2023-05-08T01:51:14.357Z,23.97
2023-05-08T01:53:47.918Z,26.37
2023-05-08T01:56:17.321Z,31.13
2023-05-08T01:58:44.329Z,31.53
2023-05-08T02:01:12.871Z,33.70
2023-05-08T02:03:43.113Z,32.20
2023-05-08T02:06:14.221Z,32.77
2023-05-08T02:08:49.905Z,34.07
2023-05-08T02:11:16.979Z,30.50
2023-05-08T02:13:44.958Z,31.63
2023-05-08T02:16:12.046Z,33.50
2023-05-08T02:18:39.330Z,32.40
2023-05-08T02:21:06.373Z,31.17
2023-05-08T02:23:33.805Z,31.80
2023-05-08T02:26:01.431Z,33.23
2023-05-08T02:28:28.279Z,33.87
2023-05-08T02:30:55.127Z,33.67
2023-05-08T02:33:22.257Z,32.00
2023-05-08T02:35:51.749Z,31.97
2023-05-08T02:38:20.784Z,31.70
2023-05-08T02:40:54.717Z,32.50
2023-05-08T02:43:21.677Z,32.77
2023-05-08T02:45:55.649Z,35.77
2023-05-08T02:48:33.832Z,31.00
2023-05-08T02:51:07.119Z,32.23
2023-05-08T02:53:40.866Z,31.43
2023-05-08T02:56:12.317Z,32.03
2023-05-08T02:58:49.407Z,35.70
2023-05-08T03:01:30.257Z,33.03
2023-05-08T03:04:02.189Z,31.27
2023-05-08T03:06:35.079Z,32.33
2023-05-08T03:09:02.074Z,32.30
2023-05-08T03:11:39.387Z,32.43
2023-05-08T03:14:11.384Z,32.50
2023-05-08T03:16:39.483Z,30.87
2023-05-08T03:19:09.579Z,34.30
2023-05-08T03:21:37.477Z,33.40
2023-05-08T03:24:07.720Z,33.87
2023-05-08T03:26:34.562Z,33.77
2023-05-08T03:29:01.420Z,33.87
2023-05-08T03:31:29.809Z,35.87
2023-05-08T03:33:56.687Z,33.73
2023-05-08T03:36:24.997Z,35.77
2023-05-08T03:38:51.905Z,35.90
2023-05-08T03:41:18.739Z,34.17
2023-05-08T03:43:45.973Z,32.80
2023-05-08T03:46:12.922Z,31.00
2023-05-08T03:48:40.909Z,31.23
2023-05-08T03:51:07.819Z,29.50
2023-05-08T03:53:34.715Z,31.23
2023-05-08T03:56:01.669Z,30.53
2023-05-08T03:59:05.372Z,31.60
2023-05-08T04:01:42.633Z,28.87
2023-05-08T04:04:17.853Z,31.07
2023-05-08T04:07:05.913Z,30.40
2023-05-08T04:09:45.730Z,30.70
2023-05-08T04:12:18.094Z,29.97
2023-05-08T04:14:56.877Z,31.13
2023-05-08T04:17:30.461Z,28.10
2023-05-08T04:20:02.830Z,27.60
2023-05-08T04:22:31.060Z,29.07
2023-05-08T04:24:59.031Z,28.13
2023-05-08T04:27:25.892Z,28.80
2023-05-08T04:29:53.507Z,27.80
2023-05-08T04:32:20.778Z,28.33
2023-05-08T04:34:53.899Z,26.63
2023-05-08T04:37:27.937Z,27.97
2023-05-08T04:39:55.023Z,27.37
2023-05-08T04:42:24.449Z,27.10
2023-05-08T04:44:52.034Z,27.00
2023-05-08T04:47:19.085Z,29.07
2023-05-08T04:49:47.090Z,27.60
2023-05-08T04:52:13.949Z,27.40
2023-05-08T04:54:41.874Z,27.98
2023-05-08T04:57:12.574Z,29.23
2023-05-08T04:59:41.341Z,28.30
2023-05-08T05:02:09.082Z,26.97
2023-05-08T05:04:36.630Z,26.77
2023-05-08T05:07:03.806Z,28.47
2023-05-08T05:09:37.283Z,26.43
2023-05-08T05:12:04.964Z,28.77
2023-05-08T05:14:32.902Z,27.27
2023-05-08T05:17:02.085Z,25.73
2023-05-08T05:19:28.971Z,26.47
2023-05-08T05:21:56.860Z,27.83
2023-05-08T05:24:23.716Z,26.70
2023-05-08T05:26:50.569Z,28.63
2023-05-08T05:29:17.507Z,29.47
2023-05-08T05:31:44.556Z,29.10
2023-05-08T05:34:13.577Z,31.47
2023-05-08T05:36:42.044Z,30.15
2023-05-08T05:39:08.930Z,29.90
2023-05-08T05:41:36.822Z,30.27
2023-05-08T05:44:04.190Z,29.98
2023-05-08T05:46:32.781Z,30.80
2023-05-08T05:48:59.792Z,32.90
2023-05-08T05:51:27.717Z,32.90
2023-05-08T05:53:54.679Z,29.20
2023-05-08T05:56:23.519Z,28.60
2023-05-08T05:58:50.595Z,26.23
2023-05-08T06:01:17.593Z,24.03
2023-05-08T06:03:44.913Z,24.48
2023-05-08T06:06:12.572Z,28.17
2023-05-08T06:08:39.738Z,27.63
2023-05-08T06:11:06.933Z,31.10
2023-05-08T06:13:36.085Z,29.70
2023-05-08T06:16:03.010Z,28.47
2023-05-08T06:18:29.908Z,29.20
2023-05-08T06:20:58.130Z,30.10
2023-05-08T06:23:25.674Z,29.65
2023-05-08T06:25:54.008Z,29.58
2023-05-08T06:28:22.652Z,29.92
2023-05-08T06:30:49.636Z,28.50
2023-05-08T06:33:16.601Z,28.33
2023-05-08T06:35:49.278Z,27.55
2023-05-08T06:38:16.365Z,27.20
2023-05-08T06:40:44.394Z,27.33
2023-05-08T06:43:11.810Z,28.73
2023-05-08T06:45:39.151Z,28.97
2023-05-08T06:48:06.540Z,27.30
2023-05-08T06:50:33.526Z,27.90
2023-05-08T06:53:00.394Z,29.67
2023-05-08T06:55:27.249Z,26.25
2023-05-08T06:57:54.080Z,27.77
2023-05-08T07:00:21.338Z,26.40
2023-05-08T07:02:48.182Z,26.88
2023-05-08T07:05:15.612Z,24.70
2023-05-08T07:07:42.936Z,25.90
2023-05-08T07:10:10.334Z,25.90
2023-05-08T07:12:37.299Z,24.35
2023-05-08T07:15:13.877Z,25.97
2023-05-08T07:17:51.362Z,26.20
2023-05-08T07:20:18.337Z,25.65
2023-05-08T07:22:47.187Z,25.65
2023-05-08T07:25:14.153Z,26.60
2023-05-08T07:27:41.317Z,24.50
2023-05-08T07:30:09.635Z,23.70
2023-05-08T07:32:36.685Z,24.08
2023-05-08T07:35:03.946Z,23.80
2023-05-08T07:37:30.826Z,22.77
2023-05-08T07:39:57.765Z,22.95
2023-05-08T07:42:24.740Z,22.85
2023-05-08T07:44:54.902Z,24.30
2023-05-08T07:47:22.505Z,21.75
2023-05-08T07:49:49.578Z,21.73
2023-05-08T07:52:16.847Z,23.98
2023-05-08T07:54:44.739Z,23.02
2023-05-08T07:57:11.795Z,24.10
2023-05-08T07:59:38.877Z,23.10
2023-05-08T08:02:07.568Z,20.58
2023-05-08T08:04:34.639Z,20.90
2023-05-08T08:07:04.278Z,24.02
2023-05-08T08:09:31.305Z,23.33
2023-05-08T08:11:58.461Z,25.13
2023-05-08T08:14:26.361Z,21.67
2023-05-08T08:16:53.275Z,21.02
2023-05-08T08:19:20.443Z,18.50
2023-05-08T08:21:47.427Z,18.30
2023-05-08T08:24:14.261Z,20.63
2023-05-08T08:26:41.231Z,20.83
2023-05-08T08:29:08.110Z,20.58
2023-05-08T08:31:35.151Z,19.23
2023-05-08T08:34:02.203Z,21.42
2023-05-08T08:36:29.313Z,21.58
2023-05-08T08:38:56.206Z,21.00
2023-05-08T08:41:23.470Z,20.25
2023-05-08T08:43:50.556Z,19.73
2023-05-08T08:46:19.118Z,20.45
2023-05-08T08:48:46.998Z,21.40
2023-05-08T08:51:28.622Z,20.02
2023-05-08T08:54:04.805Z,20.23
2023-05-08T08:56:33.108Z,20.02
2023-05-08T08:59:00.581Z,19.00
2023-05-08T09:01:29.348Z,19.88
2023-05-08T09:03:59.892Z,19.98
2023-05-08T09:06:27.798Z,19.88
2023-05-08T09:08:58.331Z,18.17
2023-05-08T09:11:25.851Z,20.80
2023-05-08T09:13:52.788Z,22.58
2023-05-08T09:16:19.736Z,21.50
2023-05-08T09:18:46.624Z,22.10
2023-05-08T09:21:13.523Z,21.02
2023-05-08T09:23:56.815Z,20.77
2023-05-08T09:26:36.974Z,21.10
2023-05-08T09:29:13.569Z,22.17
2023-05-08T09:31:44.639Z,22.10
2023-05-08T09:34:24.826Z,20.48
2023-05-08T09:36:51.674Z,20.60
2023-05-08T09:39:23.795Z,19.30
2023-05-08T09:42:06.114Z,19.45
2023-05-08T09:44:54.708Z,18.75
2023-05-08T09:47:23.012Z,21.63
2023-05-08T09:50:07.518Z,20.05
2023-05-08T09:52:35.158Z,18.45
2023-05-08T09:55:06.444Z,19.00
2023-05-08T09:57:36.423Z,17.70
2023-05-08T10:00:09.862Z,18.73
2023-05-08T10:02:37.380Z,18.67
2023-05-08T10:05:05.912Z,16.42
2023-05-08T10:07:34.467Z,18.17
2023-05-08T10:10:03.039Z,18.35
2023-05-08T10:12:30.442Z,18.70
2023-05-08T10:14:57.711Z,18.67
2023-05-08T10:17:38.121Z,21.00
2023-05-08T10:20:07.425Z,19.90
2023-05-08T10:22:37.178Z,19.10
2023-05-08T10:25:05.165Z,18.38
2023-05-08T10:27:36.002Z,19.27
2023-05-08T10:30:04.277Z,18.05
2023-05-08T10:32:38.135Z,19.60
2023-05-08T10:35:05.354Z,19.60
2023-05-08T10:37:32.400Z,20.30
2023-05-08T10:39:59.300Z,20.52
2023-05-08T10:42:26.592Z,21.08
2023-05-08T10:44:53.716Z,20.17
2023-05-08T10:47:55.834Z,19.63
2023-05-08T10:50:40.551Z,23.10
2023-05-08T10:53:12.535Z,21.73
2023-05-08T10:55:39.937Z,22.42
2023-05-08T10:58:16.900Z,22.20
2023-05-08T11:00:49.734Z,22.75
2023-05-08T11:03:30.430Z,23.10
2023-05-08T11:06:00.401Z,20.73
2023-05-08T11:08:28.810Z,22.15
2023-05-08T11:11:05.247Z,21.23
2023-05-08T11:13:38.896Z,19.33
2023-05-08T11:16:11.232Z,20.92
2023-05-08T11:18:48.990Z,20.67
2023-05-08T11:21:21.834Z,21.30
2023-05-08T11:23:56.792Z,19.63
2023-05-08T11:26:23.745Z,20.80
2023-05-08T11:28:53.629Z,19.38
2023-05-08T11:31:20.826Z,19.30
2023-05-08T11:33:47.776Z,19.35
2023-05-08T11:36:22.888Z,20.65
2023-05-08T11:39:09.741Z,20.77
2023-05-08T11:41:36.597Z,20.27
2023-05-08T11:44:09.150Z,20.75
2023-05-08T11:46:50.732Z,22.27
2023-05-08T11:49:21.433Z,21.73
2023-05-08T11:51:55.292Z,22.75
2023-05-08T11:54:22.474Z,22.73
2023-05-08T11:56:50.766Z,24.05
2023-05-08T11:59:17.900Z,22.75
2023-05-08T12:01:53.632Z,20.40
2023-05-08T12:04:27.403Z,21.67
2023-05-08T12:06:57.697Z,22.55
2023-05-08T12:09:24.626Z,26.10
2023-05-08T12:11:56.244Z,25.88
2023-05-08T12:14:23.307Z,26.95
2023-05-08T12:16:51.242Z,28.02
2023-05-08T12:19:18.165Z,26.58
2023-05-08T12:21:51.574Z,22.00
2023-05-08T12:24:24.465Z,22.55
2023-05-08T12:26:55.364Z,24.95
2023-05-08T12:29:23.126Z,24.83
2023-05-08T12:31:50.133Z,25.30
2023-05-08T12:34:17.095Z,27.63
2023-05-08T12:36:44.083Z,27.15
2023-05-08T12:39:18.248Z,24.65
2023-05-08T12:41:52.046Z,25.33
2023-05-08T12:44:25.714Z,25.02
2023-05-08T12:46:53.440Z,24.33
2023-05-08T12:49:28.142Z,23.63
2023-05-08T12:52:06.750Z,22.85
2023-05-08T12:54:38.406Z,22.27
2023-05-08T12:57:15.852Z,22.70
2023-05-08T12:59:43.108Z,20.83
2023-05-08T13:02:18.089Z,19.63
2023-05-08T13:04:45.519Z,19.95
2023-05-08T13:07:12.418Z,18.83
2023-05-08T13:09:39.794Z,18.67
2023-05-08T13:12:06.905Z,18.40
2023-05-08T13:14:33.841Z,19.48
2023-05-08T13:17:00.794Z,17.67
2023-05-08T13:19:28.510Z,17.15
2023-05-08T13:21:55.396Z,15.40
2023-05-08T13:24:22.312Z,15.95
2023-05-08T13:26:49.142Z,14.88
2023-05-08T13:29:16.097Z,13.82
2023-05-08T13:31:43.087Z,12.02
2023-05-08T13:34:10.142Z,10.77
2023-05-08T13:36:37.054Z,11.60
2023-05-08T13:39:04.007Z,8.60
2023-05-08T13:41:30.865Z,9.00
2023-05-08T13:43:57.769Z,7.78
2023-05-08T13:46:25.215Z,6.78
2023-05-08T13:48:52.122Z,5.78
2023-05-08T13:51:18.978Z,4.90
2023-05-08T13:53:45.942Z,5.18
2023-05-08T13:56:12.787Z,4.65
2023-05-08T13:58:40.305Z,3.95
2023-05-08T14:01:22.024Z,4.53
2023-05-08T14:03:53.105Z,4.70
2023-05-08T14:06:20.637Z,4.72
2023-05-08T14:08:50.428Z,6.05
2023-05-08T14:11:18.507Z,4.90
2023-05-08T14:13:45.400Z,4.13
2023-05-08T14:16:14.423Z,3.83
2023-05-08T14:18:41.369Z,4.15
2023-05-08T14:21:08.251Z,3.92
2023-05-08T14:23:36.072Z,3.58
2023-05-08T14:26:03.094Z,4.50
2023-05-08T14:28:29.997Z,3.75
2023-05-08T14:30:56.998Z,4.03
2023-05-08T14:33:23.986Z,3.97
2023-05-08T14:35:50.880Z,3.78
2023-05-08T14:38:17.710Z,3.70
2023-05-08T14:40:44.603Z,3.00
2023-05-08T14:43:11.469Z,4.00
2023-05-08T14:45:38.333Z,3.85
2023-05-08T14:48:06.204Z,2.58
2023-05-08T14:50:33.092Z,3.40
2023-05-08T14:53:00.018Z,2.95
2023-05-08T14:55:27.173Z,3.20
2023-05-08T14:57:54.259Z,3.67
2023-05-08T15:00:21.486Z,4.20
2023-05-08T15:02:48.599Z,4.57
2023-05-08T15:05:20.046Z,3.45
2023-05-08T15:07:47.388Z,2.70
2023-05-08T15:10:14.291Z,3.78
2023-05-08T15:12:41.215Z,3.17
2023-05-08T15:15:08.384Z,3.55
2023-05-08T15:17:36.522Z,3.25
2023-05-08T15:20:04.079Z,3.83
2023-05-08T15:22:31.002Z,4.50
2023-05-08T15:25:02.496Z,4.72
2023-05-08T15:27:29.966Z,3.58
2023-05-08T15:29:56.898Z,3.13
2023-05-08T15:32:24.154Z,3.92
2023-05-08T15:34:51.088Z,3.65
2023-05-08T15:37:18.001Z,3.53
2023-05-08T15:39:44.852Z,3.33
2023-05-08T15:42:11.801Z,3.92
2023-05-08T15:44:53.882Z,3.40
2023-05-08T15:47:23.271Z,3.80
2023-05-08T15:49:51.065Z,3.65
2023-05-08T15:52:19.674Z,4.18
2023-05-08T15:54:47.287Z,3.17
2023-05-08T15:57:14.285Z,4.15
2023-05-08T15:59:41.252Z,4.85
2023-05-08T16:02:08.279Z,4.05
2023-05-08T16:04:35.245Z,3.95
2023-05-08T16:07:02.102Z,4.22
2023-05-08T16:09:28.934Z,4.30
2023-05-08T16:11:55.948Z,4.35
2023-05-08T16:14:22.824Z,4.00
2023-05-08T16:16:49.863Z,5.13
2023-05-08T16:19:16.728Z,4.30
2023-05-08T16:21:46.935Z,4.53
2023-05-08T16:24:14.189Z,3.42
2023-05-08T16:26:41.081Z,3.95
2023-05-08T16:29:07.989Z,4.03
2023-05-08T16:31:34.850Z,4.13
2023-05-08T16:34:01.708Z,4.30
2023-05-08T16:36:28.742Z,3.83
2023-05-08T16:38:55.713Z,4.07
2023-05-08T16:41:23.136Z,4.50
2023-05-08T16:43:51.088Z,4.40
2023-05-08T16:46:29.154Z,3.78
2023-05-08T16:48:57.150Z,4.20
2023-05-08T16:51:24.059Z,4.15
2023-05-08T16:53:50.883Z,3.47
2023-05-08T16:56:18.176Z,4.32
2023-05-08T16:58:45.181Z,4.55
2023-05-08T17:01:13.004Z,4.70
2023-05-08T17:03:39.937Z,4.30
2023-05-08T17:06:09.322Z,4.00
2023-05-08T17:08:36.204Z,5.45
2023-05-08T17:11:03.272Z,7.05
2023-05-08T17:13:30.290Z,6.13
2023-05-08T17:15:57.967Z,5.97
2023-05-08T17:18:24.931Z,5.65
2023-05-08T17:20:51.882Z,6.20
2023-05-08T17:23:19.732Z,6.32
2023-05-08T17:25:47.623Z,6.40
2023-05-08T17:28:14.546Z,5.88
2023-05-08T17:30:41.432Z,6.90
2023-05-08T17:33:08.446Z,6.25
2023-05-08T17:35:35.390Z,6.18
2023-05-08T17:38:02.271Z,6.47
2023-05-08T17:40:29.276Z,6.78
2023-05-08T17:42:56.230Z,6.60
2023-05-08T17:45:23.135Z,7.15
2023-05-08T17:47:50.252Z,6.00
2023-05-08T17:50:17.180Z,6.45
2023-05-08T17:52:44.036Z,6.47
2023-05-08T17:55:11.009Z,6.85
2023-05-08T17:57:37.893Z,6.50
2023-05-08T18:00:07.409Z,7.00
2023-05-08T18:02:34.374Z,7.28
2023-05-08T18:05:01.805Z,6.70
2023-05-08T18:07:28.646Z,6.60
2023-05-08T18:09:55.903Z,6.88
2023-05-08T18:12:22.956Z,7.50
2023-05-08T18:14:49.905Z,6.78
2023-05-08T18:17:19.329Z,7.22
2023-05-08T18:19:46.619Z,7.00
2023-05-08T18:22:13.500Z,7.97
2023-05-08T18:24:40.503Z,8.68
2023-05-08T18:27:07.413Z,8.95
2023-05-08T18:29:34.248Z,8.10
2023-05-08T18:32:01.086Z,8.80
2023-05-08T18:34:27.961Z,8.23
2023-05-08T18:36:56.130Z,8.32
2023-05-08T18:39:24.862Z,8.68
2023-05-08T18:41:51.758Z,8.05
2023-05-08T18:44:18.636Z,8.27
2023-05-08T18:46:45.657Z,9.07
2023-05-08T18:49:12.590Z,8.63
2023-05-08T18:51:39.483Z,8.52
2023-05-08T18:54:06.366Z,8.63
2023-05-08T18:56:34.344Z,8.05
2023-05-08T18:59:03.736Z,7.15
2023-05-08T19:01:30.607Z,7.97
2023-05-08T19:03:59.571Z,7.10
2023-05-08T19:06:26.483Z,7.13
2023-05-08T19:08:53.658Z,6.97
2023-05-08T19:11:20.500Z,7.13
2023-05-08T19:13:50.009Z,6.85
2023-05-08T19:16:17.070Z,6.88
2023-05-08T19:18:47.111Z,5.93
2023-05-08T19:21:14.014Z,6.80
2023-05-08T19:23:40.873Z,6.43
2023-05-08T19:26:07.835Z,6.53
2023-05-08T19:28:37.787Z,8.05
2023-05-08T19:31:04.642Z,6.50
2023-05-08T19:33:31.513Z,6.35
2023-05-08T19:35:58.451Z,6.65
2023-05-08T19:38:25.284Z,7.00
2023-05-08T19:40:56.356Z,6.85
2023-05-08T19:43:25.412Z,6.50
2023-05-08T19:45:52.443Z,6.82
2023-05-08T19:48:20.176Z,7.85
2023-05-08T19:50:47.302Z,7.70
2023-05-08T19:53:15.275Z,6.80
2023-05-08T19:55:42.121Z,7.97
2023-05-08T19:58:09.993Z,6.80
2023-05-08T20:00:39.925Z,7.05
2023-05-08T20:03:07.889Z,7.25
2023-05-08T20:05:34.845Z,8.05
2023-05-08T20:08:01.793Z,8.18
2023-05-08T20:10:28.681Z,7.45
2023-05-08T20:12:55.559Z,7.97
2023-05-08T20:15:28.203Z,8.10
2023-05-08T20:17:55.689Z,8.55
2023-05-08T20:20:22.750Z,9.23
2023-05-08T20:22:49.598Z,8.63
2023-05-08T20:25:16.477Z,8.18
2023-05-08T20:27:43.404Z,9.40
2023-05-08T20:30:10.409Z,9.23
2023-05-08T20:32:37.385Z,10.50
2023-05-08T20:35:04.478Z,9.77
2023-05-08T20:37:31.448Z,10.88
2023-05-08T20:39:58.371Z,10.95
2023-05-08T20:42:25.373Z,10.27
2023-05-08T20:44:52.265Z,11.65
2023-05-08T20:47:19.213Z,11.02
2023-05-08T20:49:46.135Z,10.77
2023-05-08T20:52:13.065Z,11.25
2023-05-08T20:54:45.442Z,11.10
2023-05-08T20:57:13.195Z,9.45
2023-05-08T20:59:40.059Z,9.30
2023-05-08T21:02:06.982Z,10.77
2023-05-08T21:04:33.965Z,10.10
2023-05-08T21:07:00.948Z,11.02
2023-05-08T21:09:33.815Z,10.80
2023-05-08T21:12:01.724Z,10.38
2023-05-08T21:14:28.573Z,12.30
2023-05-08T21:16:55.730Z,11.75
2023-05-08T21:19:23.765Z,11.00
2023-05-08T21:21:50.626Z,11.90
2023-05-08T21:24:17.531Z,11.55
2023-05-08T21:26:44.406Z,10.93
2023-05-08T21:29:11.398Z,12.07
2023-05-08T21:31:38.410Z,10.70
2023-05-08T21:34:06.998Z,12.43
2023-05-08T21:36:35.286Z,10.85
2023-05-08T21:39:02.705Z,10.90
2023-05-08T21:41:33.195Z,13.20
2023-05-08T21:44:00.131Z,12.75
2023-05-08T21:46:27.009Z,12.45
2023-05-08T21:48:53.951Z,12.13
2023-05-08T21:51:21.791Z,12.73
2023-05-08T21:53:49.683Z,13.35
2023-05-08T21:56:18.623Z,13.68
2023-05-08T21:58:45.510Z,13.15
2023-05-08T22:01:13.403Z,13.68
2023-05-08T22:03:40.536Z,12.23
2023-05-08T22:06:07.737Z,13.60
2023-05-08T22:08:34.596Z,13.65
2023-05-08T22:11:01.569Z,12.98
2023-05-08T22:13:30.580Z,13.80
2023-05-08T22:15:57.512Z,13.57
2023-05-08T22:18:24.453Z,15.43
2023-05-08T22:20:51.362Z,15.07
2023-05-08T22:23:18.412Z,16.08
2023-05-08T22:25:45.250Z,13.88
2023-05-08T22:28:12.243Z,14.52
2023-05-08T22:30:40.167Z,14.40
2023-05-08T22:33:07.144Z,13.95
2023-05-08T22:35:39.091Z,14.18
2023-05-08T22:38:05.943Z,13.85
2023-05-08T22:40:33.347Z,14.73
2023-05-08T22:43:00.276Z,13.70
2023-05-08T22:45:27.233Z,13.35
2023-05-08T22:47:54.636Z,14.95
2023-05-08T22:50:21.630Z,15.30
2023-05-08T22:52:48.465Z,14.23
2023-05-08T22:55:16.122Z,14.68
2023-05-08T22:57:43.572Z,14.23
2023-05-08T23:00:13.848Z,13.95
2023-05-08T23:02:40.749Z,15.73
2023-05-08T23:05:14.587Z,15.80
2023-05-08T23:07:42.861Z,14.32
2023-05-08T23:10:10.192Z,15.90
2023-05-08T23:12:37.099Z,15.05
2023-05-08T23:15:05.235Z,16.23
2023-05-08T23:17:33.175Z,15.93
2023-05-08T23:20:00.226Z,16.60
2023-05-08T23:22:28.637Z,17.15
2023-05-08T23:24:56.524Z,16.48
2023-05-08T23:27:25.720Z,17.60
2023-05-08T23:29:52.606Z,17.85
2023-05-08T23:32:19.477Z,17.23
2023-05-08T23:34:46.302Z,17.90
2023-05-08T23:37:13.332Z,18.73
2023-05-08T23:39:41.432Z,19.02
2023-05-08T23:42:08.640Z,20.17
2023-05-08T23:44:37.880Z,18.83
2023-05-08T23:47:04.893Z,18.98
2023-05-08T23:49:31.722Z,19.98
2023-05-08T23:51:59.576Z,19.08
2023-05-08T23:54:29.462Z,19.85
2023-05-08T23:56:56.365Z,20.48
2023-05-08T23:59:23.266Z,19.77
